Time;durP1;ratioP1;P1;durP2;ratioP2;P2;SDS_P1;SDS_P2;PMS_P1;PMS_P2;Temp;Humidity;BMP_temperature;BMP_pressure;BME280_temperature;BME280_humidity;BME280_pressure;Samples;Min_cycle;Max_cycle;Signal;HPM_P1;HPM_P2
2023/05/04 00:00:01;;;;;;;5.65;3.22;;;;;;;12.47;60.58;99981.94;334149;29;5309;-75
2023/05/04 00:00:14;;;;;;;5.90;3.28;;;;;;;12.45;60.49;99970.72;332199;29;17668;-75
2023/05/04 00:00:26;;;;;;;6.35;3.30;;;;;;;12.45;60.02;99978.53;335362;29;5898;-75
2023/05/04 00:00:38;;;;;;;6.55;3.30;;;;;;;12.45;59.88;99975.94;332103;29;4671;-75
2023/05/04 00:00:50;;;;;;;5.03;3.05;;;;;;;12.45;59.81;99973.34;334922;29;4598;-75
2023/05/04 00:01:02;;;;;;;3.67;2.83;;;;;;;12.45;59.71;99970.72;333597;28;9325;-75
2023/05/04 00:01:17;;;;;;;3.80;2.78;;;;;;;12.46;60.13;99972.44;332735;29;17964;-75
2023/05/04 00:01:29;;;;;;;4.32;2.90;;;;;;;12.39;60.48;99969.19;331333;29;18343;-75
2023/05/04 00:01:42;;;;;;;5.13;2.95;;;;;;;12.39;60.26;99970.06;334343;29;4723;-75
2023/05/04 00:01:54;;;;;;;5.40;3.20;;;;;;;12.39;60.21;99970.06;331170;29;18061;-75
2023/05/04 00:02:06;;;;;;;5.47;3.35;;;;;;;12.43;60.47;99972.53;334181;29;4734;-75
2023/05/04 00:02:18;;;;;;;5.00;3.30;;;;;;;12.43;59.87;99973.38;331013;29;17946;-75
2023/05/04 00:02:30;;;;;;;4.40;3.30;;;;;;;12.45;59.72;99973.34;333554;29;4525;-75
2023/05/04 00:02:42;;;;;;;4.27;3.10;;;;;;;12.45;60.18;99970.72;331493;29;18220;-76
2023/05/04 00:02:55;;;;;;;4.72;3.00;;;;;;;12.45;60.09;99974.19;333903;29;5669;-75
2023/05/04 00:03:07;;;;;;;5.05;3.00;;;;;;;12.44;60.09;99972.50;333734;29;4849;-75
2023/05/04 00:03:19;;;;;;;4.63;3.10;;;;;;;12.45;60.62;99975.94;331818;29;18094;-75
2023/05/04 00:03:31;;;;;;;4.57;3.00;;;;;;;12.44;59.81;99971.66;335472;29;5962;-75
2023/05/04 00:03:43;;;;;;;4.78;3.05;;;;;;;12.38;59.77;99976.16;332824;29;18569;-75
2023/05/04 00:03:56;;;;;;;4.65;3.10;;;;;;;12.44;59.68;99971.66;335572;29;4548;-75
2023/05/04 00:04:08;;;;;;;5.05;3.10;;;;;;;12.45;59.66;99970.72;333105;28;18161;-75
2023/05/04 00:04:21;;;;;;;5.13;3.17;;;;;;;12.46;59.49;99977.66;335051;28;5746;-75
2023/05/04 00:04:33;;;;;;;4.55;3.20;;;;;;;12.46;59.45;99967.22;330391;29;16067;-75
2023/05/04 00:04:45;;;;;;;5.18;3.50;;;;;;;12.46;59.70;99967.22;331629;29;5024;-75
2023/05/04 00:04:57;;;;;;;5.80;3.60;;;;;;;12.46;59.81;99969.84;332871;29;4586;-75
2023/05/04 00:05:11;;;;;;;5.70;3.20;;;;;;;12.45;60.02;99975.94;330865;29;18461;-75
2023/05/04 00:05:22;;;;;;;5.47;3.22;;;;;;;12.46;59.90;99972.44;331097;29;10349;-75
2023/05/04 00:05:34;;;;;;;4.32;3.08;;;;;;;12.46;59.55;99967.22;333486;29;5304;-75
2023/05/04 00:05:46;;;;;;;5.32;3.30;;;;;;;12.46;59.61;99973.28;333208;29;4532;-75
2023/05/04 00:05:58;;;;;;;5.35;3.30;;;;;;;12.46;59.78;99972.44;329646;29;18655;-75
2023/05/04 00:06:10;;;;;;;5.28;3.33;;;;;;;12.45;59.84;99970.72;333012;29;4571;-75
2023/05/04 00:06:22;;;;;;;4.70;3.00;;;;;;;12.45;59.37;99973.34;330756;29;8271;-75
2023/05/04 00:06:34;;;;;;;4.70;2.97;;;;;;;12.44;59.38;99974.25;335030;29;5405;-75
2023/05/04 00:06:46;;;;;;;4.45;2.85;;;;;;;12.43;59.91;99969.94;333559;28;4530;-75
2023/05/04 00:06:58;;;;;;;6.55;3.05;;;;;;;12.44;59.71;99974.25;332704;29;17670;-76
2023/05/04 00:07:11;;;;;;;7.30;3.28;;;;;;;12.43;59.44;99968.16;334579;29;5208;-75
2023/05/04 00:07:23;;;;;;;6.88;3.40;;;;;;;12.45;59.59;99970.72;332373;29;19093;-75
2023/05/04 00:07:35;;;;;;;6.10;3.47;;;;;;;12.43;59.40;99968.16;334435;29;4606;-75
2023/05/04 00:07:47;;;;;;;5.93;3.38;;;;;;;12.43;59.43;99962.09;334536;29;4516;-75
2023/05/04 00:07:59;;;;;;;5.85;3.40;;;;;;;12.37;60.11;99964.03;331321;29;18171;-75
2023/05/04 00:08:11;;;;;;;5.82;3.35;;;;;;;12.34;60.35;99966.75;333412;29;4543;-75
2023/05/04 00:08:23;;;;;;;5.75;3.35;;;;;;;12.34;59.66;99969.34;332740;29;18144;-75
2023/05/04 00:08:35;;;;;;;5.25;3.30;;;;;;;12.34;59.83;99961.53;334936;29;4909;-75
2023/05/04 00:08:47;;;;;;;4.88;3.22;;;;;;;12.36;60.07;99972.75;334544;29;4580;-75
2023/05/04 00:08:59;;;;;;;4.45;2.97;;;;;;;12.35;59.91;99964.97;331769;29;18284;-75
2023/05/04 00:09:13;;;;;;;4.43;2.85;;;;;;;12.33;60.15;99965.03;334079;29;5375;-75
2023/05/04 00:09:25;;;;;;;4.22;2.90;;;;;;;12.35;59.59;99963.25;330432;29;17874;-75
2023/05/04 00:09:37;;;;;;;4.53;3.13;;;;;;;12.36;59.68;99964.94;331392;29;7210;-75
2023/05/04 00:09:50;;;;;;;5.30;3.40;;;;;;;12.36;59.71;99972.75;334352;29;4503;-75
2023/05/04 00:10:02;;;;;;;5.43;3.53;;;;;;;12.35;59.29;99962.38;334368;29;4718;-75
2023/05/04 00:10:14;;;;;;;5.53;3.30;;;;;;;12.35;59.30;99960.63;331558;29;19137;-75
2023/05/04 00:10:27;;;;;;;6.53;3.00;;;;;;;12.35;59.67;99968.47;334431;29;5207;-75
2023/05/04 00:10:38;;;;;;;6.63;3.10;;;;;;;12.37;59.50;99963.16;332419;29;18038;-75
2023/05/04 00:10:51;;;;;;;5.85;2.85;;;;;;;12.38;59.68;99960.50;335664;29;4540;-75
2023/05/04 00:11:03;;;;;;;5.00;2.85;;;;;;;12.37;59.50;99964.03;331707;29;9603;-75
2023/05/04 00:11:15;;;;;;;4.53;3.00;;;;;;;12.39;59.57;99962.22;334590;29;5158;-75
2023/05/04 00:11:27;;;;;;;4.53;3.20;;;;;;;12.41;59.39;99963.91;335585;29;4700;-75
2023/05/04 00:11:39;;;;;;;4.63;3.28;;;;;;;12.43;59.59;99967.31;333334;28;18002;-75
2023/05/04 00:11:51;;;;;;;4.78;3.15;;;;;;;12.42;59.53;99960.44;336044;28;4862;-75
2023/05/04 00:12:03;;;;;;;4.72;3.20;;;;;;;12.41;59.62;99958.69;333595;28;18075;-75
2023/05/04 00:12:16;;;;;;;5.93;3.30;;;;;;;12.43;59.56;99970.78;335482;28;4707;-75
2023/05/04 00:12:28;;;;;;;6.90;3.33;;;;;;;12.41;59.25;99966.53;332205;29;7031;-75
2023/05/04 00:12:41;;;;;;;7.78;3.25;;;;;;;12.36;59.44;99957.13;334479;29;4728;-75
2023/05/04 00:12:53;;;;;;;5.68;3.15;;;;;;;12.34;59.46;99961.53;331322;29;16694;-75
2023/05/04 00:13:05;;;;;;;4.45;3.03;;;;;;;12.33;59.41;99961.56;333667;29;4655;-75
2023/05/04 00:13:17;;;;;;;4.18;3.03;;;;;;;12.32;59.85;99960.72;332221;29;5195;-76
2023/05/04 00:13:29;;;;;;;4.75;3.10;;;;;;;12.33;59.66;99957.19;334550;28;18355;-76
2023/05/04 00:13:44;;;;;;;5.18;3.10;;;;;;;12.35;59.62;99965.84;337060;28;5372;-75
2023/05/04 00:13:56;;;;;;;5.82;3.30;;;;;;;12.37;59.48;99964.03;331050;29;17536;-75
2023/05/04 00:14:08;;;;;;;5.13;3.28;;;;;;;12.36;59.62;99964.94;330563;29;18080;-75
2023/05/04 00:14:20;;;;;;;5.72;3.22;;;;;;;12.36;59.67;99962.31;333935;29;4662;-75
2023/05/04 00:14:32;;;;;;;7.05;3.50;;;;;;;12.35;60.30;99960.63;334619;29;5455;-75
2023/05/04 00:14:44;;;;;;;6.30;3.45;;;;;;;12.36;60.33;99961.47;331011;29;18114;-75
2023/05/04 00:14:56;;;;;;;6.00;3.40;;;;;;;12.37;60.15;99963.16;334048;29;4801;-75
2023/05/04 00:15:08;;;;;;;5.22;3.20;;;;;;;12.36;59.62;99964.94;331668;28;18136;-75
2023/05/04 00:15:20;;;;;;;5.03;3.03;;;;;;;12.35;60.00;99965.84;333935;29;5237;-75
2023/05/04 00:15:32;;;;;;;4.10;3.15;;;;;;;12.35;59.64;99965.84;333717;29;4642;-75
2023/05/04 00:15:44;;;;;;;4.10;3.22;;;;;;;12.32;59.50;99965.94;330340;29;17983;-75
2023/05/04 00:15:56;;;;;;;3.65;3.20;;;;;;;12.32;59.72;99958.13;333366;29;4703;-75
2023/05/04 00:16:08;;;;;;;3.30;3.00;;;;;;;12.30;59.31;99967.75;331705;29;19315;-75
2023/05/04 00:16:22;;;;;;;3.58;2.97;;;;;;;12.31;59.41;99968.59;333170;29;4521;-75
2023/05/04 00:16:34;;;;;;;4.45;3.05;;;;;;;12.32;59.73;99965.09;329542;29;18252;-75
2023/05/04 00:16:46;;;;;;;5.00;3.20;;;;;;;12.20;59.24;99971.59;333349;29;4515;-75
2023/05/04 00:16:58;;;;;;;5.05;3.35;;;;;;;12.20;59.53;99966.38;330416;29;17705;-75
2023/05/04 00:17:11;;;;;;;4.90;3.35;;;;;;;12.23;59.61;99971.47;332685;29;5330;-75
2023/05/04 00:17:23;;;;;;;4.35;3.13;;;;;;;12.22;59.75;99964.56;331921;29;18054;-75
2023/05/04 00:17:35;;;;;;;4.95;3.30;;;;;;;12.22;59.86;99958.50;334890;29;4712;-75
2023/05/04 00:17:50;;;;;;;5.68;3.70;;;;;;;12.23;59.85;99970.63;334443;29;4633;-75
2023/05/04 00:18:02;;;;;;;5.22;3.58;;;;;;;12.24;59.90;99973.19;331415;29;16719;-75
2023/05/04 00:18:17;;;;;;;4.45;3.22;;;;;;;12.23;60.13;99971.47;334068;29;5450;-75
2023/05/04 00:18:29;;;;;;;6.05;3.70;;;;;;;12.23;60.01;99965.41;332654;29;18008;-75
2023/05/04 00:18:41;;;;;;;6.45;3.70;;;;;;;12.22;59.64;99964.56;335379;29;5601;-75
2023/05/04 00:18:53;;;;;;;6.53;3.80;;;;;;;12.22;59.56;99964.56;332805;29;18410;-75
2023/05/04 00:19:06;;;;;;;5.20;3.40;;;;;;;12.24;59.81;99962.75;335102;29;4690;-75
2023/05/04 00:19:18;;;;;;;4.40;3.22;;;;;;;12.26;59.77;99960.94;331588;29;5116;-75
2023/05/04 00:19:31;;;;;;;4.68;3.22;;;;;;;12.28;59.82;99969.56;335914;29;5192;-75
2023/05/04 00:19:45;;;;;;;5.32;3.15;;;;;;;12.29;60.13;99965.19;332689;29;18174;-75
2023/05/04 00:19:57;;;;;;;5.50;3.15;;;;;;;12.30;59.71;99967.75;335474;28;4557;-75
2023/05/04 00:20:10;;;;;;;5.55;3.08;;;;;;;12.31;59.79;99963.38;332239;29;18141;-75
2023/05/04 00:20:22;;;;;;;5.38;3.20;;;;;;;12.31;59.60;99966.84;334474;29;5973;-75
2023/05/04 00:20:34;;;;;;;5.13;3.20;;;;;;;12.31;59.92;99961.63;332327;29;18089;-75
2023/05/04 00:20:46;;;;;;;5.40;3.22;;;;;;;12.31;59.84;99964.22;333991;29;4612;-75
2023/05/04 00:20:58;;;;;;;5.40;3.25;;;;;;;12.30;60.04;99967.75;331865;29;9810;-75
2023/05/04 00:21:10;;;;;;;6.25;3.10;;;;;;;12.27;60.16;99962.63;334394;29;4477;-75
2023/05/04 00:21:22;;;;;;;6.32;3.25;;;;;;;12.28;60.18;99964.34;334627;29;5500;-75
2023/05/04 00:21:34;;;;;;;5.82;3.30;;;;;;;12.30;59.88;99962.53;331634;29;18134;-75
2023/05/04 00:21:46;;;;;;;5.25;3.22;;;;;;;12.28;59.53;99966.97;334707;29;5084;-75
2023/05/04 00:21:58;;;;;;;6.28;3.50;;;;;;;12.25;60.15;99964.44;331540;29;8576;-75
2023/05/04 00:22:09;;;;;;;5.45;3.40;;;;;;;12.27;59.68;99967.84;334609;29;4558;-75
2023/05/04 00:22:21;;;;;;;4.13;3.20;;;;;;;12.26;59.81;99963.56;332954;29;4769;-75
2023/05/04 00:22:33;;;;;;;4.35;3.10;;;;;;;12.28;60.00;99964.34;330191;29;18180;-75
2023/05/04 00:22:45;;;;;;;3.92;2.92;;;;;;;12.29;60.03;99966.03;331301;29;5935;-75
2023/05/04 00:22:57;;;;;;;4.40;3.00;;;;;;;12.30;60.37;99969.53;331403;29;4586;-75
2023/05/04 00:23:12;;;;;;;4.70;2.90;;;;;;;12.32;60.16;99965.09;329131;29;16791;-75
2023/05/04 00:23:24;;;;;;;3.85;2.70;;;;;;;12.32;60.02;99971.16;328984;29;17544;-75
2023/05/04 00:23:36;;;;;;;3.92;2.80;;;;;;;12.31;60.10;99961.63;331948;29;4871;-75
2023/05/04 00:23:48;;;;;;;3.90;2.97;;;;;;;12.32;59.59;99960.72;329105;29;18395;-76
2023/05/04 00:24:01;;;;;;;3.72;2.95;;;;;;;12.34;59.90;99966.75;331601;29;4572;-75
2023/05/04 00:24:13;;;;;;;4.88;3.00;;;;;;;12.33;60.19;99967.63;329395;29;10059;-75
2023/05/04 00:24:25;;;;;;;4.68;2.90;;;;;;;12.33;60.26;99967.63;332186;29;5372;-75
2023/05/04 00:24:37;;;;;;;4.45;3.00;;;;;;;12.33;59.97;99956.38;333684;29;4701;-75
2023/05/04 00:24:49;;;;;;;4.72;3.17;;;;;;;12.31;59.79;99964.22;332194;29;18088;-75
2023/05/04 00:25:01;;;;;;;5.07;3.25;;;;;;;12.32;59.99;99965.94;335254;29;4552;-75
2023/05/04 00:25:13;;;;;;;5.93;3.40;;;;;;;12.33;59.88;99966.78;331883;29;19199;-75
2023/05/04 00:25:25;;;;;;;6.20;3.53;;;;;;;12.29;60.31;99960.81;333552;29;4504;-75
2023/05/04 00:25:37;;;;;;;5.82;3.63;;;;;;;12.28;60.30;99961.75;333187;29;5118;-75
2023/05/04 00:25:49;;;;;;;5.53;3.30;;;;;;;12.27;60.23;99967.84;329250;29;18123;-75
2023/05/04 00:26:02;;;;;;;6.85;3.20;;;;;;;12.28;60.18;99960.91;335117;28;4797;-75
2023/05/04 00:26:13;;;;;;;6.25;3.28;;;;;;;12.25;59.61;99967.06;333151;29;18049;-75
2023/05/04 00:26:25;;;;;;;4.45;3.13;;;;;;;12.24;59.83;99967.97;334450;28;5773;-75
2023/05/04 00:26:37;;;;;;;4.93;3.05;;;;;;;12.25;59.97;99964.44;334669;28;7668;-75
2023/05/04 00:26:49;;;;;;;5.80;3.10;;;;;;;12.20;60.14;99961.16;333184;29;18311;-75
2023/05/04 00:27:01;;;;;;;4.85;3.20;;;;;;;12.19;60.29;99959.44;335658;29;5373;-75
2023/05/04 00:27:13;;;;;;;3.97;3.15;;;;;;;12.19;60.13;99959.44;332312;29;18333;-75
2023/05/04 00:27:25;;;;;;;5.25;3.45;;;;;;;12.20;59.95;99958.56;334322;29;5197;-75
2023/05/04 00:27:37;;;;;;;5.55;3.42;;;;;;;12.18;60.24;99965.56;334816;29;5093;-75
2023/05/04 00:27:49;;;;;;;4.88;3.42;;;;;;;12.18;60.53;99965.56;333286;29;18276;-75
2023/05/04 00:28:01;;;;;;;5.07;3.20;;;;;;;12.18;60.25;99969.03;335859;29;4784;-75
2023/05/04 00:28:13;;;;;;;4.80;3.17;;;;;;;12.20;60.22;99963.78;331894;29;18144;-75
2023/05/04 00:28:25;;;;;;;4.18;3.00;;;;;;;12.20;60.61;99961.16;334624;29;5226;-75
2023/05/04 00:28:37;;;;;;;4.53;3.10;;;;;;;12.21;60.31;99957.63;333915;29;5304;-75
2023/05/04 00:28:49;;;;;;;4.82;2.95;;;;;;;12.17;60.08;99963.84;330737;29;18069;-75
2023/05/04 00:29:01;;;;;;;4.85;3.00;;;;;;;12.15;60.44;99963.06;333175;29;5115;-75
2023/05/04 00:29:13;;;;;;;4.50;3.00;;;;;;;12.15;60.17;99963.94;330653;29;10069;-75
2023/05/04 00:29:25;;;;;;;5.90;3.28;;;;;;;12.14;60.17;99961.38;332607;29;4660;-75
2023/05/04 00:29:37;;;;;;;5.75;3.30;;;;;;;12.12;59.92;99960.56;332421;29;4537;-75
2023/05/04 00:29:49;;;;;;;5.43;3.30;;;;;;;12.10;59.99;99970.19;330150;29;17884;-75
2023/05/04 00:30:01;;;;;;;5.25;3.20;;;;;;;12.11;60.00;99961.47;334018;29;4780;-75
2023/05/04 00:30:14;;;;;;;5.78;3.20;;;;;;;12.12;59.75;99963.19;331590;29;18230;-75
2023/05/04 00:30:26;;;;;;;5.30;3.15;;;;;;;12.08;60.37;99965.03;333868;29;4590;-75
2023/05/04 00:30:38;;;;;;;5.05;3.20;;;;;;;12.11;60.00;99967.56;330611;29;4655;-75
2023/05/04 00:30:52;;;;;;;4.68;3.25;;;;;;;12.13;60.11;99967.47;335679;29;5322;-75
2023/05/04 00:31:04;;;;;;;4.45;3.00;;;;;;;12.08;60.18;99972.00;330879;29;18384;-75
2023/05/04 00:31:17;;;;;;;4.63;3.15;;;;;;;12.07;60.64;99959.88;332902;29;4563;-75
2023/05/04 00:31:30;;;;;;;5.10;3.50;;;;;;;12.07;60.85;99965.06;333089;28;18131;-75
2023/05/04 00:31:42;;;;;;;5.18;3.40;;;;;;;12.10;60.70;99960.63;337224;28;5271;-75
2023/05/04 00:31:54;;;;;;;5.25;3.00;;;;;;;12.11;60.03;99961.47;331648;28;17926;-75
2023/05/04 00:32:06;;;;;;;5.55;3.10;;;;;;;12.09;60.25;99964.16;335819;29;5447;-75
2023/05/04 00:32:18;;;;;;;5.13;3.10;;;;;;;12.08;60.83;99961.59;332688;29;16315;-74
2023/05/04 00:32:30;;;;;;;3.83;3.03;;;;;;;12.11;60.42;99961.47;334368;29;4739;-75
2023/05/04 00:32:42;;;;;;;4.10;3.03;;;;;;;12.12;60.48;99961.41;333879;29;4612;-75
2023/05/04 00:32:54;;;;;;;4.18;3.03;;;;;;;12.12;60.68;99963.19;330832;29;17998;-75
2023/05/04 00:33:06;;;;;;;4.55;3.20;;;;;;;12.12;61.17;99952.75;334090;29;4552;-75
2023/05/04 00:33:18;;;;;;;4.80;3.20;;;;;;;12.13;60.28;99959.66;331663;29;16566;-75
2023/05/04 00:33:30;;;;;;;4.97;3.05;;;;;;;12.11;60.06;99958.84;334339;29;4658;-75
2023/05/04 00:33:42;;;;;;;4.65;3.10;;;;;;;12.08;60.52;99961.59;333663;29;4584;-75
2023/05/04 00:33:54;;;;;;;5.13;3.10;;;;;;;12.08;60.35;99958.97;330243;29;19077;-75
2023/05/04 00:34:06;;;;;;;6.15;3.10;;;;;;;12.08;60.26;99956.38;334113;29;4620;-75
2023/05/04 00:34:18;;;;;;;5.63;3.15;;;;;;;12.10;60.66;99955.41;331080;29;16763;-75
2023/05/04 00:34:35;;;;;;;5.20;3.00;;;;;;;12.12;60.87;99948.38;334442;29;4559;-75
2023/05/04 00:34:47;;;;;;;3.30;2.70;;;;;;;12.14;60.77;99958.75;331878;29;17847;-75
2023/05/04 00:34:59;;;;;;;3.88;2.80;;;;;;;12.11;60.79;99957.13;331609;29;17155;-75
2023/05/04 00:35:11;;;;;;;4.43;3.00;;;;;;;12.14;60.99;99948.34;334461;29;4562;-75
2023/05/04 00:35:24;;;;;;;5.38;3.03;;;;;;;12.16;60.79;99951.75;334163;28;17541;-75
2023/05/04 00:35:36;;;;;;;4.97;3.00;;;;;;;12.16;60.10;99949.13;335979;28;6026;-76
2023/05/04 00:35:48;;;;;;;4.50;3.03;;;;;;;12.17;60.20;99951.69;337216;28;4644;-76
2023/05/04 00:36:02;;;;;;;4.38;3.10;;;;;;;12.17;60.19;99948.22;332916;29;17948;-76
2023/05/04 00:36:14;;;;;;;6.22;3.20;;;;;;;12.16;60.52;99952.59;330926;28;17982;-75
2023/05/04 00:36:26;;;;;;;5.78;3.20;;;;;;;12.17;59.85;99950.81;334651;29;4737;-76
2023/05/04 00:36:38;;;;;;;6.90;3.05;;;;;;;12.17;59.71;99946.50;332315;29;9492;-76
2023/05/04 00:36:50;;;;;;;5.50;3.13;;;;;;;12.15;59.56;99947.41;334754;29;5616;-75
2023/05/04 00:37:02;;;;;;;6.03;3.33;;;;;;;12.13;59.80;99950.09;334528;29;5208;-76
2023/05/04 00:37:14;;;;;;;5.05;3.40;;;;;;;12.13;59.87;99949.22;330448;29;19589;-75
2023/05/04 00:37:26;;;;;;;4.32;3.20;;;;;;;12.15;60.03;99947.41;335018;29;4597;-76
2023/05/04 00:37:38;;;;;;;3.63;3.08;;;;;;;12.12;59.89;99955.38;333752;29;6178;-75
2023/05/04 00:37:50;;;;;;;4.18;3.28;;;;;;;12.11;60.15;99953.66;331862;29;17796;-76
2023/05/04 00:38:03;;;;;;;5.00;3.33;;;;;;;12.11;59.98;99956.25;334362;29;4546;-76
2023/05/04 00:38:17;;;;;;;5.72;3.33;;;;;;;12.08;59.66;99948.56;331934;29;17960;-75
2023/05/04 00:38:29;;;;;;;5.05;3.28;;;;;;;12.07;60.17;99955.50;332723;29;17761;-76
2023/05/04 00:38:53;;;;;;;4.78;3.20;;;;;;;12.05;59.62;99951.25;335844;29;4563;-75
2023/05/04 00:39:05;;;;;;;4.00;2.90;;;;;;;12.06;60.46;99952.97;333015;28;17403;-75
2023/05/04 00:39:20;;;;;;;4.60;3.10;;;;;;;12.09;59.99;99952.84;333466;28;17978;-76
2023/05/04 00:39:34;;;;;;;5.15;3.40;;;;;;;12.10;60.02;99954.56;335596;29;5475;-76
2023/05/04 00:39:46;;;;;;;5.30;3.35;;;;;;;12.11;59.80;99951.03;332238;29;18094;-75
2023/05/04 00:39:58;;;;;;;4.75;3.08;;;;;;;12.11;60.39;99946.69;335173;28;5401;-75
2023/05/04 00:40:10;;;;;;;4.40;3.00;;;;;;;12.12;60.39;99948.38;332936;28;18077;-75
2023/05/04 00:40:22;;;;;;;5.10;3.25;;;;;;;12.09;59.93;99947.63;335678;29;5322;-76
2023/05/04 00:40:34;;;;;;;6.93;3.38;;;;;;;12.09;59.77;99947.63;330996;29;18367;-75
2023/05/04 00:40:46;;;;;;;7.20;3.35;;;;;;;12.07;60.03;99950.28;333852;29;4780;-75
2023/05/04 00:40:58;;;;;;;7.03;3.42;;;;;;;12.07;60.09;99954.66;332275;29;9253;-76
2023/05/04 00:41:10;;;;;;;6.97;3.65;;;;;;;12.04;60.35;99952.16;334807;29;5561;-76
2023/05/04 00:41:22;;;;;;;5.72;3.50;;;;;;;12.03;60.37;99953.06;333431;29;5608;-76
2023/05/04 00:41:34;;;;;;;5.60;3.33;;;;;;;12.04;60.15;99944.34;331246;29;18124;-75
2023/05/04 00:41:46;;;;;;;4.22;3.17;;;;;;;11.99;60.11;99953.19;335291;28;5504;-75
2023/05/04 00:41:58;;;;;;;4.82;3.10;;;;;;;12.01;59.74;99949.66;332892;29;9861;-74
2023/05/04 00:42:10;;;;;;;5.38;2.92;;;;;;;12.01;59.45;99949.66;335070;29;4973;-74
2023/05/04 00:42:22;;;;;;;5.97;2.95;;;;;;;12.01;60.10;99945.28;336952;28;4665;-74
2023/05/04 00:42:34;;;;;;;4.43;2.90;;;;;;;12.03;60.12;99953.06;334085;28;18113;-75
2023/05/04 00:42:46;;;;;;;3.38;2.88;;;;;;;12.03;60.16;99953.91;336459;28;4659;-74
2023/05/04 00:42:58;;;;;;;4.15;3.17;;;;;;;12.05;60.11;99952.09;334091;28;16624;-75
2023/05/04 00:43:10;;;;;;;4.40;3.20;;;;;;;12.06;60.19;99952.97;336649;28;5938;-74
2023/05/04 00:43:22;;;;;;;4.40;3.22;;;;;;;12.05;60.06;99946.88;333931;29;4719;-74
2023/05/04 00:43:34;;;;;;;5.15;3.25;;;;;;;12.07;59.93;99944.22;330214;29;18011;-74
2023/05/04 00:43:47;;;;;;;5.05;3.25;;;;;;;12.06;60.24;99948.59;330822;29;4754;-74
2023/05/04 00:44:01;;;;;;;5.57;3.40;;;;;;;12.04;60.90;99949.56;330126;29;5437;-74
2023/05/04 00:44:13;;;;;;;5.45;3.30;;;;;;;12.00;61.36;99954.03;330953;29;5204;-75
2023/05/04 00:44:26;;;;;;;4.97;3.00;;;;;;;12.01;60.82;99950.50;332860;29;4776;-74
2023/05/04 00:44:40;;;;;;;5.05;3.05;;;;;;;12.03;60.72;99945.25;332165;29;5021;-74
2023/05/04 00:44:52;;;;;;;6.38;3.20;;;;;;;12.03;60.20;99948.69;330174;29;16997;-75
2023/05/04 00:45:05;;;;;;;6.40;3.25;;;;;;;12.04;60.25;99944.34;331533;29;18058;-75
2023/05/04 00:45:17;;;;;;;4.57;3.13;;;;;;;12.04;60.36;99949.56;333987;29;5100;-75
2023/05/04 00:45:29;;;;;;;4.90;3.25;;;;;;;12.04;60.13;99947.81;331578;29;19349;-75
2023/05/04 00:45:41;;;;;;;3.97;3.10;;;;;;;12.05;59.77;99943.44;333971;29;4533;-75
2023/05/04 00:45:53;;;;;;;4.05;3.10;;;;;;;12.06;59.78;99947.75;332481;29;8900;-75
2023/05/04 00:46:05;;;;;;;5.03;3.10;;;;;;;12.04;60.26;99950.41;335457;29;5268;-75
2023/05/04 00:46:17;;;;;;;6.50;3.17;;;;;;;12.05;59.99;99951.25;334972;28;4577;-75
2023/05/04 00:46:31;;;;;;;6.28;3.08;;;;;;;12.07;59.94;99949.44;333008;29;18400;-74
2023/05/04 00:46:43;;;;;;;6.25;3.15;;;;;;;12.04;59.77;99945.19;334258;29;4569;-76
2023/05/04 00:46:56;;;;;;;7.10;3.20;;;;;;;12.05;60.06;99946.03;331201;29;18730;-75
2023/05/04 00:47:08;;;;;;;5.65;3.10;;;;;;;12.04;59.79;99949.56;332778;29;4665;-75
2023/05/04 00:47:21;;;;;;;5.97;3.10;;;;;;;12.04;59.66;99949.56;330526;29;18269;-75
2023/05/04 00:47:33;;;;;;;4.50;3.10;;;;;;;12.04;59.80;99949.56;331832;29;5202;-75
2023/05/04 00:47:46;;;;;;;4.43;3.10;;;;;;;12.06;59.56;99947.75;333788;29;5276;-75
2023/05/04 00:47:58;;;;;;;4.53;3.00;;;;;;;12.07;59.79;99946.84;333878;29;5250;-75
2023/05/04 00:48:10;;;;;;;4.35;2.97;;;;;;;12.09;59.98;99950.25;330794;29;17861;-74
2023/05/04 00:48:22;;;;;;;4.68;3.17;;;;;;;12.08;59.71;99956.38;334015;29;5629;-75
2023/05/04 00:48:35;;;;;;;5.75;3.38;;;;;;;12.07;59.92;99944.22;332813;29;17997;-75
2023/05/04 00:48:48;;;;;;;5.13;3.22;;;;;;;12.06;59.87;99952.97;335871;28;4534;-75
2023/05/04 00:49:01;;;;;;;4.55;2.88;;;;;;;12.07;60.03;99952.03;333017;29;17862;-75
2023/05/04 00:49:13;;;;;;;4.25;2.78;;;;;;;12.08;59.79;99951.16;335441;28;4546;-74
2023/05/04 00:49:25;;;;;;;3.50;2.70;;;;;;;12.10;60.06;99949.34;332360;29;17896;-74
2023/05/04 00:49:38;;;;;;;3.40;3.00;;;;;;;12.00;59.88;99948.81;334277;29;5366;-74
2023/05/04 00:49:50;;;;;;;3.92;3.20;;;;;;;11.96;60.20;99945.44;333163;28;17910;-74
2023/05/04 00:50:03;;;;;;;4.28;3.10;;;;;;;11.97;60.20;99954.97;334826;28;4710;-74
2023/05/04 00:50:16;;;;;;;4.63;2.83;;;;;;;11.99;60.27;99947.09;332135;29;18357;-74
2023/05/04 00:50:28;;;;;;;4.75;2.95;;;;;;;11.99;60.13;99947.97;335559;29;5262;-74
2023/05/04 00:50:40;;;;;;;3.95;2.80;;;;;;;12.01;59.92;99949.66;332114;29;18099;-75
2023/05/04 00:50:52;;;;;;;4.82;2.97;;;;;;;11.92;59.61;99949.06;335297;28;4870;-74
2023/05/04 00:51:06;;;;;;;4.80;3.00;;;;;;;11.93;60.41;99947.28;332197;28;18014;-74
2023/05/04 00:51:20;;;;;;;4.60;3.13;;;;;;;11.93;60.67;99948.16;335169;29;5317;-74
2023/05/04 00:51:33;;;;;;;3.90;3.00;;;;;;;11.95;60.28;99943.75;333025;29;18058;-74
2023/05/04 00:51:46;;;;;;;4.70;2.72;;;;;;;11.94;60.43;99949.00;327235;29;5863;-74
2023/05/04 00:52:01;;;;;;;5.25;2.80;;;;;;;11.96;60.37;99952.41;335558;29;5340;-75
2023/05/04 00:52:15;;;;;;;4.30;3.00;;;;;;;11.97;60.45;99947.16;333585;28;17115;-74
2023/05/04 00:52:28;;;;;;;4.95;3.03;;;;;;;11.98;59.99;99951.47;335650;29;4542;-75
2023/05/04 00:52:42;;;;;;;5.55;3.15;;;;;;;11.98;60.00;99946.25;332517;29;18259;-74
2023/05/04 00:52:57;;;;;;;4.88;3.10;;;;;;;11.98;59.77;99946.25;330781;29;5552;-74
2023/05/04 00:53:10;;;;;;;4.45;2.90;;;;;;;12.02;60.20;99946.16;332075;29;17014;-75
2023/05/04 00:53:22;;;;;;;4.75;2.92;;;;;;;11.98;59.69;99951.47;332717;29;5029;-75
2023/05/04 00:53:36;;;;;;;4.03;3.00;;;;;;;12.00;59.84;99948.81;331396;29;19076;-74
2023/05/04 00:53:48;;;;;;;4.15;3.10;;;;;;;12.00;60.01;99943.59;333279;29;5459;-74
2023/05/04 00:54:02;;;;;;;5.47;3.33;;;;;;;12.01;59.97;99950.50;332277;29;16772;-74
2023/05/04 00:54:18;;;;;;;6.00;3.20;;;;;;;12.02;59.88;99940.94;330544;29;17949;-74
2023/05/04 00:54:31;;;;;;;4.80;2.90;;;;;;;12.04;60.13;99952.16;331484;29;18073;-76
2023/05/04 00:54:45;;;;;;;4.20;2.80;;;;;;;12.07;59.95;99939.03;334365;29;4946;-74
2023/05/04 00:55:00;;;;;;;6.03;2.83;;;;;;;12.05;60.04;99946.03;332764;29;18221;-74
2023/05/04 00:55:13;;;;;;;6.40;2.97;;;;;;;12.06;60.38;99947.75;333149;29;18182;-74
2023/05/04 00:55:25;;;;;;;4.40;2.95;;;;;;;12.04;60.49;99949.56;332960;29;17977;-74
2023/05/04 00:55:39;;;;;;;4.05;2.90;;;;;;;12.04;59.62;99946.97;335010;28;5384;-74
2023/05/04 00:55:51;;;;;;;3.88;2.70;;;;;;;12.06;59.47;99937.34;332324;29;18185;-75
2023/05/04 00:56:05;;;;;;;3.83;2.88;;;;;;;12.06;59.61;99942.53;335654;29;5764;-74
2023/05/04 00:56:20;;;;;;;3.40;2.70;;;;;;;12.06;59.82;99947.75;333170;29;17810;-74
2023/05/04 00:56:32;;;;;;;4.55;3.00;;;;;;;12.06;59.42;99945.16;333999;28;19239;-76
2023/05/04 00:56:44;;;;;;;5.20;3.22;;;;;;;12.08;59.56;99945.94;334282;28;18167;-74
2023/05/04 00:56:56;;;;;;;5.38;3.30;;;;;;;12.01;58.69;99949.66;336709;28;5679;-74
2023/05/04 00:57:08;;;;;;;5.85;3.17;;;;;;;11.97;59.02;99941.94;334759;28;5522;-74
2023/05/04 00:57:20;;;;;;;4.70;3.05;;;;;;;11.99;59.42;99947.09;334865;28;18147;-74
2023/05/04 00:57:32;;;;;;;4.00;3.08;;;;;;;12.00;59.23;99948.81;335205;28;5863;-74
2023/05/04 00:57:44;;;;;;;6.25;3.08;;;;;;;12.00;59.76;99946.19;332242;28;18150;-75
2023/05/04 00:57:57;;;;;;;6.75;3.40;;;;;;;11.99;59.66;99945.34;335775;28;4566;-74
2023/05/04 00:58:09;;;;;;;6.15;3.50;;;;;;;12.01;59.39;99944.44;333528;28;9295;-74
2023/05/04 00:58:21;;;;;;;4.53;3.30;;;;;;;12.01;59.84;99944.44;335941;28;5258;-74
2023/05/04 00:58:34;;;;;;;5.13;3.30;;;;;;;12.01;59.99;99941.84;335042;29;4662;-74
2023/05/04 00:58:46;;;;;;;5.57;3.30;;;;;;;12.02;59.57;99940.94;333365;29;18640;-74
2023/05/04 00:58:58;;;;;;;4.70;3.08;;;;;;;12.04;59.25;99939.13;335188;28;5244;-74
2023/05/04 00:59:12;;;;;;;4.45;2.85;;;;;;;12.05;59.76;99940.81;332880;29;18253;-75
2023/05/04 00:59:24;;;;;;;4.63;2.83;;;;;;;12.05;59.66;99940.81;331536;29;18043;-75
2023/05/04 00:59:36;;;;;;;4.60;2.90;;;;;;;12.05;59.47;99946.88;334385;29;5487;-74